Terminal Aerodrome Forecast
Issued by NWS

Home | Current Version | Previous Version | Text Only | Print | Product List | Glossary On
Versions: 1 2 3 4 5 6 7 8 9 10 11 12 13 14 15 16 17 18
300
FTUS46 KPDT 252320
TAFRDM
TAF
KRDM 252320Z 2600/2624 29015G22KT P6SM OVC045
     FM260600 30010KT P6SM BKN045 OVC100
     FM261400 28007KT P6SM SKC
     FM261900 32014KT P6SM FEW070=

USA.gov is the U.S. government's official web portal to all federal, state and local government web resources and services.